Time;durP1;ratioP1;P1;durP2;ratioP2;P2;SDS_P1;SDS_P2;PMS_P1;PMS_P2;Temp;Humidity;BMP_temperature;BMP_pressure;BME280_temperature;BME280_humidity;BME280_pressure;Samples;Min_cycle;Max_cycle;Signal;HPM_P1;HPM_P2
2022/05/18 00:00:48;;;;;;;1.50;1.40;;;22.50;58.40;;;;;;4944384;29;20043;-59
2022/05/18 00:03:16;;;;;;;1.60;1.45;;;22.50;58.40;;;;;;4943695;28;20054;-59
2022/05/18 00:05:42;;;;;;;1.77;1.40;;;22.40;58.30;;;;;;4944102;29;20077;-59
2022/05/18 00:08:08;;;;;;;2.10;1.38;;;22.50;58.30;;;;;;4944879;29;20043;-59
2022/05/18 00:10:35;;;;;;;2.20;1.40;;;22.50;58.30;;;;;;4943533;29;20047;-59
2022/05/18 00:13:02;;;;;;;1.70;1.23;;;22.50;58.30;;;;;;4942880;29;20110;-63
2022/05/18 00:15:28;;;;;;;2.20;1.30;;;22.40;58.20;;;;;;4945202;29;20042;-60
2022/05/18 00:17:55;;;;;;;1.85;1.40;;;22.50;58.30;;;;;;4943370;28;20031;-60
2022/05/18 00:20:21;;;;;;;1.40;1.30;;;22.40;58.20;;;;;;4944402;29;20084;-58
2022/05/18 00:22:49;;;;;;;1.92;1.40;;;22.40;58.20;;;;;;4944753;28;20039;-58
2022/05/18 00:25:17;;;;;;;1.88;1.40;;;22.40;58.10;;;;;;4943612;28;20083;-61
2022/05/18 00:27:43;;;;;;;1.58;1.40;;;22.40;58.10;;;;;;4943617;28;20043;-58
2022/05/18 00:30:10;;;;;;;1.90;1.52;;;22.50;58.20;;;;;;4944777;28;20054;-57
2022/05/18 00:32:35;;;;;;;1.20;1.10;;;22.40;58.10;;;;;;4944959;29;20414;-58
2022/05/18 00:35:01;;;;;;;1.45;1.35;;;22.40;58.10;;;;;;4947140;28;20039;-61
2022/05/18 00:37:27;;;;;;;2.53;1.50;;;22.40;58.10;;;;;;4949151;29;20361;-60
2022/05/18 00:39:52;;;;;;;1.30;1.20;;;22.40;58.00;;;;;;4946507;29;20044;-58
2022/05/18 00:42:20;;;;;;;1.40;1.30;;;22.40;58.00;;;;;;4946951;28;20039;-60
2022/05/18 00:44:46;;;;;;;2.05;1.40;;;22.40;58.00;;;;;;4946193;28;20062;-59
2022/05/18 00:47:12;;;;;;;1.40;1.30;;;22.40;58.00;;;;;;4945935;29;20047;-60
2022/05/18 00:49:39;;;;;;;1.30;1.20;;;22.40;58.00;;;;;;4946307;29;20419;-60
2022/05/18 00:52:06;;;;;;;1.40;1.30;;;22.40;57.90;;;;;;4944616;28;20043;-59
2022/05/18 00:54:33;;;;;;;1.88;1.30;;;22.40;57.90;;;;;;4946963;29;20075;-60
2022/05/18 00:57:25;;;;;;;2.30;1.40;;;22.40;57.90;;;;;;4946424;29;20040;-61
2022/05/18 01:00:03;;;;;;;1.52;1.30;;;22.40;57.80;;;;;;4947406;28;20435;-59
2022/05/18 01:02:35;;;;;;;1.85;1.50;;;22.40;57.80;;;;;;4946582;29;20058;-59
2022/05/18 01:05:05;;;;;;;1.88;1.50;;;22.40;57.80;;;;;;4946205;28;20182;-59
2022/05/18 01:07:36;;;;;;;2.42;1.58;;;22.40;57.90;;;;;;4945721;29;20470;-62
2022/05/18 01:10:04;;;;;;;1.30;1.20;;;22.40;57.80;;;;;;4945673;29;20051;-58
2022/05/18 01:12:30;;;;;;;1.45;1.35;;;22.40;57.80;;;;;;4947459;28;20489;-58
2022/05/18 01:15:01;;;;;;;1.83;1.30;;;22.40;57.70;;;;;;4946872;28;20130;-59
2022/05/18 01:17:32;;;;;;;2.05;1.52;;;22.40;57.70;;;;;;4947261;29;20095;-61
2022/05/18 01:20:00;;;;;;;2.40;1.40;;;22.40;57.70;;;;;;4947791;28;20054;-60
2022/05/18 01:22:44;;;;;;;2.17;1.58;;;22.40;57.70;;;;;;4947960;28;20518;-58
2022/05/18 01:25:37;;;;;;;2.97;1.33;;;22.40;57.70;;;;;;4946835;28;20054;-60
2022/05/18 01:28:05;;;;;;;1.77;1.33;;;22.40;57.70;;;;;;4946167;28;20050;-59
2022/05/18 01:30:32;;;;;;;2.08;1.48;;;22.40;57.70;;;;;;4947858;29;20047;-60
2022/05/18 01:32:59;;;;;;;1.80;1.27;;;22.40;57.70;;;;;;4945517;29;20054;-59
2022/05/18 01:35:28;;;;;;;2.63;1.40;;;22.40;57.60;;;;;;4945176;28;20397;-60
2022/05/18 01:37:57;;;;;;;2.78;1.55;;;22.40;58.30;;;;;;4944471;29;20500;-59
2022/05/18 01:40:43;;;;;;;2.53;1.30;;;22.40;57.60;;;;;;4946680;29;20035;-59
2022/05/18 01:43:12;;;;;;;1.85;1.20;;;22.40;57.50;;;;;;4945838;28;20050;-59
2022/05/18 01:45:38;;;;;;;1.20;1.10;;;22.40;57.60;;;;;;4947082;29;20039;-57
2022/05/18 01:48:11;;;;;;;1.73;1.23;;;22.40;57.60;;;;;;4946464;29;20077;-58
2022/05/18 01:50:37;;;;;;;1.50;1.27;;;22.40;57.50;;;;;;4946413;29;20065;-59
2022/05/18 01:53:03;;;;;;;1.85;1.50;;;22.40;57.50;;;;;;4945961;28;20107;-58
2022/05/18 01:55:29;;;;;;;1.80;1.23;;;22.40;57.40;;;;;;4946174;28;20055;-59
2022/05/18 01:57:55;;;;;;;1.60;1.38;;;22.40;57.40;;;;;;4943616;29;20065;-61
2022/05/18 02:00:21;;;;;;;1.50;1.25;;;22.40;57.50;;;;;;4945006;28;20039;-58
2022/05/18 02:02:46;;;;;;;1.60;1.30;;;22.40;57.40;;;;;;4938342;28;20717;-60
2022/05/18 02:05:12;;;;;;;2.00;1.30;;;22.40;57.40;;;;;;4940410;28;20703;-60
2022/05/18 02:07:38;;;;;;;1.90;1.25;;;22.40;57.40;;;;;;4945027;28;20039;-60
2022/05/18 02:10:04;;;;;;;3.05;1.50;;;22.40;57.40;;;;;;4944159;29;20066;-61
2022/05/18 02:12:30;;;;;;;1.50;1.30;;;22.40;57.40;;;;;;4945157;29;20060;-61
2022/05/18 02:14:55;;;;;;;2.00;1.20;;;22.40;57.30;;;;;;4944895;29;20047;-59
2022/05/18 02:17:22;;;;;;;1.60;1.50;;;22.40;57.30;;;;;;4946428;29;20141;-59
2022/05/18 02:19:48;;;;;;;1.33;1.10;;;22.40;57.30;;;;;;4943455;29;20706;-59
2022/05/18 02:22:13;;;;;;;1.50;1.40;;;22.40;57.30;;;;;;4945658;29;20046;-58
2022/05/18 02:24:39;;;;;;;2.85;1.60;;;22.40;57.30;;;;;;4947301;28;20407;-57
2022/05/18 02:27:04;;;;;;;1.50;1.40;;;22.40;57.30;;;;;;4946631;29;20047;-58
2022/05/18 02:29:30;;;;;;;2.13;1.58;;;22.40;57.30;;;;;;4946414;28;20054;-59
2022/05/18 02:31:56;;;;;;;1.30;1.10;;;22.40;57.30;;;;;;4943772;29;20039;-59
2022/05/18 02:34:21;;;;;;;2.38;1.60;;;22.40;57.20;;;;;;4948148;28;20054;-60
2022/05/18 02:36:48;;;;;;;1.70;1.40;;;22.40;57.30;;;;;;4944977;28;20702;-57
2022/05/18 02:39:14;;;;;;;1.50;1.40;;;22.30;57.20;;;;;;4944312;29;20051;-59
2022/05/18 02:41:40;;;;;;;1.10;1.10;;;22.40;57.30;;;;;;4946661;29;20443;-58
2022/05/18 02:44:06;;;;;;;1.50;1.40;;;22.40;57.30;;;;;;4943495;28;20039;-60
2022/05/18 02:46:31;;;;;;;3.78;1.70;;;22.30;57.20;;;;;;4946535;29;20047;-58
2022/05/18 02:48:57;;;;;;;1.88;1.45;;;22.30;57.10;;;;;;4943457;29;20614;-57
2022/05/18 02:51:23;;;;;;;1.55;1.40;;;22.30;57.10;;;;;;4945979;28;20171;-59
2022/05/18 02:53:48;;;;;;;1.60;1.40;;;22.30;57.10;;;;;;4944540;28;20039;-61
2022/05/18 02:56:23;;;;;;;1.70;1.60;;;22.30;57.10;;;;;;4945625;29;20432;-60
2022/05/18 02:58:51;;;;;;;2.22;1.40;;;22.40;57.20;;;;;;4942487;29;20039;-58
2022/05/18 03:01:19;;;;;;;1.58;1.30;;;22.30;57.20;;;;;;4943751;29;20039;-59
2022/05/18 03:03:45;;;;;;;1.80;1.30;;;22.30;57.10;;;;;;4945137;29;20170;-58
2022/05/18 03:06:13;;;;;;;2.25;1.20;;;22.30;57.10;;;;;;4944054;29;20167;-59
2022/05/18 03:08:41;;;;;;;1.30;1.20;;;22.30;57.00;;;;;;4945172;29;20054;-59
2022/05/18 03:11:07;;;;;;;1.50;1.40;;;22.30;57.00;;;;;;4943992;29;20126;-59
2022/05/18 03:13:33;;;;;;;3.15;1.80;;;22.30;57.00;;;;;;4945577;29;20522;-59
2022/05/18 03:15:59;;;;;;;2.28;1.50;;;22.30;57.00;;;;;;4943081;28;20043;-59
2022/05/18 03:18:25;;;;;;;2.05;1.48;;;22.30;56.90;;;;;;4945731;29;20117;-58
2022/05/18 03:23:35;;;;;;;2.15;1.58;;;22.30;57.00;;;;;;4944802;28;20046;-60
2022/05/18 03:26:13;;;;;;;1.60;1.50;;;22.30;56.90;;;;;;4944480;29;20043;-59
2022/05/18 03:28:41;;;;;;;2.08;1.50;;;22.30;56.90;;;;;;4945396;29;20118;-59
2022/05/18 03:31:08;;;;;;;1.50;1.40;;;22.30;56.90;;;;;;4942885;28;20097;-58
2022/05/18 03:33:35;;;;;;;1.95;1.60;;;22.30;57.00;;;;;;4946323;28;20047;-57
2022/05/18 03:36:01;;;;;;;2.25;1.50;;;22.30;56.80;;;;;;4935660;29;20427;-58
2022/05/18 03:38:27;;;;;;;1.52;1.42;;;22.30;56.70;;;;;;4945020;29;20552;-59
2022/05/18 03:40:53;;;;;;;1.70;1.58;;;22.30;56.80;;;;;;4945712;29;20331;-59
2022/05/18 03:43:20;;;;;;;1.67;1.45;;;22.30;56.80;;;;;;4945024;29;20388;-59
2022/05/18 03:45:46;;;;;;;1.63;1.52;;;22.30;57.40;;;;;;4945324;29;20027;-58
2022/05/18 03:48:13;;;;;;;1.45;1.35;;;22.30;56.70;;;;;;4943881;28;20054;-60
2022/05/18 03:50:42;;;;;;;1.60;1.50;;;22.30;56.70;;;;;;4944009;29;20042;-62
2022/05/18 03:53:09;;;;;;;1.42;1.30;;;22.30;56.70;;;;;;4944313;29;20051;-61
2022/05/18 03:55:37;;;;;;;2.10;1.80;;;22.30;56.70;;;;;;4944645;29;20122;-58
2022/05/18 03:58:02;;;;;;;1.95;1.67;;;22.30;56.70;;;;;;4944516;28;20127;-59
2022/05/18 04:00:28;;;;;;;1.40;1.30;;;22.30;56.70;;;;;;4942473;29;20539;-62
2022/05/18 04:02:54;;;;;;;1.83;1.65;;;22.30;56.70;;;;;;4933351;28;20031;-58
2022/05/18 04:05:21;;;;;;;2.67;1.38;;;22.30;56.70;;;;;;4940829;28;20134;-61
2022/05/18 04:07:47;;;;;;;2.05;1.70;;;22.30;56.90;;;;;;4944542;29;20047;-58
2022/05/18 04:10:14;;;;;;;1.85;1.40;;;22.30;56.60;;;;;;4946166;29;20047;-59
2022/05/18 04:12:40;;;;;;;1.80;1.60;;;22.30;56.60;;;;;;4945838;28;20497;-59
2022/05/18 04:15:06;;;;;;;1.63;1.52;;;22.30;56.50;;;;;;4946406;29;20127;-58
2022/05/18 04:17:32;;;;;;;1.63;1.50;;;22.30;56.40;;;;;;4946910;29;20131;-59
2022/05/18 04:19:57;;;;;;;1.45;1.30;;;22.30;56.50;;;;;;4945785;29;20496;-60
2022/05/18 04:22:26;;;;;;;1.60;1.50;;;22.30;56.50;;;;;;4945850;29;20452;-60
2022/05/18 04:24:52;;;;;;;1.45;1.35;;;22.30;56.50;;;;;;4948574;28;20134;-62
2022/05/18 04:27:17;;;;;;;1.67;1.52;;;22.30;56.50;;;;;;4947136;28;20047;-62
2022/05/18 04:29:43;;;;;;;1.88;1.45;;;22.30;56.40;;;;;;4946453;29;20046;-61
2022/05/18 04:32:09;;;;;;;1.50;1.40;;;22.20;56.30;;;;;;4946043;29;20057;-61
2022/05/18 04:34:35;;;;;;;1.50;1.40;;;22.20;56.40;;;;;;4948244;28;20039;-59
2022/05/18 04:37:01;;;;;;;1.70;1.58;;;22.30;56.40;;;;;;4947332;29;21202;-59
2022/05/18 04:39:27;;;;;;;1.60;1.50;;;22.30;57.10;;;;;;4947061;29;20138;-60
2022/05/18 04:41:52;;;;;;;1.73;1.40;;;22.20;56.30;;;;;;4946499;29;20047;-59
2022/05/18 04:44:18;;;;;;;1.90;1.60;;;22.20;56.30;;;;;;4946215;28;20047;-59
2022/05/18 04:46:44;;;;;;;1.67;1.58;;;22.20;56.30;;;;;;4945929;29;20227;-59
2022/05/18 04:49:13;;;;;;;1.65;1.55;;;22.30;56.40;;;;;;4946182;29;20399;-58
2022/05/18 04:51:38;;;;;;;1.77;1.45;;;22.20;56.30;;;;;;4947667;29;20114;-59
2022/05/18 04:54:04;;;;;;;1.90;1.75;;;22.20;56.30;;;;;;4947211;29;20563;-58
2022/05/18 04:56:30;;;;;;;1.92;1.67;;;22.20;56.40;;;;;;4945798;28;20083;-59
2022/05/18 04:58:56;;;;;;;2.03;1.80;;;22.20;56.40;;;;;;4947157;29;20071;-59
2022/05/18 05:01:24;;;;;;;2.35;1.55;;;22.20;56.30;;;;;;4946996;28;20051;-58
2022/05/18 05:03:50;;;;;;;1.83;1.60;;;22.30;56.40;;;;;;4949727;28;20070;-60
2022/05/18 05:06:16;;;;;;;1.55;1.45;;;22.30;56.40;;;;;;4947328;29;20726;-59
2022/05/18 05:08:41;;;;;;;1.70;1.58;;;22.20;56.30;;;;;;4945651;28;20058;-60
2022/05/18 05:11:08;;;;;;;2.72;1.60;;;22.20;56.30;;;;;;4944475;29;20046;-59
2022/05/18 05:13:34;;;;;;;5.68;1.77;;;22.20;56.20;;;;;;4940895;28;20436;-60
2022/05/18 05:16:08;;;;;;;3.22;1.75;;;22.20;56.30;;;;;;4942315;28;20047;-60
2022/05/18 05:18:35;;;;;;;2.08;1.50;;;22.20;56.40;;;;;;4946617;29;20118;-60
2022/05/18 05:21:01;;;;;;;2.65;1.77;;;22.20;56.50;;;;;;4944936;28;20043;-59
2022/05/18 05:23:27;;;;;;;2.20;2.00;;;22.20;56.60;;;;;;4945455;28;20047;-58
2022/05/18 05:25:55;;;;;;;3.40;1.70;;;22.20;56.70;;;;;;4945640;29;20162;-58
2022/05/18 05:28:20;;;;;;;2.78;2.35;;;22.30;56.90;;;;;;4946269;29;20046;-58
2022/05/18 05:30:46;;;;;;;3.25;2.10;;;22.30;57.00;;;;;;4945757;29;20039;-59
2022/05/18 05:33:12;;;;;;;2.58;2.38;;;22.30;56.90;;;;;;4946426;29;20046;-60
2022/05/18 05:35:41;;;;;;;2.85;2.50;;;22.30;57.10;;;;;;4946230;28;20162;-60
2022/05/18 05:38:10;;;;;;;4.55;2.85;;;22.30;57.00;;;;;;4944558;28;20045;-63
2022/05/18 05:40:37;;;;;;;6.57;4.00;;;22.30;57.00;;;;;;4946389;29;20054;-61
2022/05/18 05:43:10;;;;;;;5.22;3.67;;;22.30;57.30;;;;;;4944770;29;20042;-59
2022/05/18 05:45:37;;;;;;;7.40;4.60;;;22.30;57.40;;;;;;4945777;28;20082;-60
2022/05/18 05:48:04;;;;;;;8.20;4.13;;;22.30;57.40;;;;;;4944689;29;20059;-60
2022/05/18 05:50:30;;;;;;;5.65;4.10;;;22.30;57.30;;;;;;4942567;28;20047;-59
2022/05/18 05:52:57;;;;;;;6.72;4.15;;;22.30;57.50;;;;;;4944617;28;20497;-58
2022/05/18 05:55:23;;;;;;;6.20;4.53;;;22.30;57.70;;;;;;4945146;29;20039;-62
2022/05/18 05:57:49;;;;;;;5.70;5.07;;;22.30;58.00;;;;;;4946827;29;20410;-60
2022/05/18 06:00:15;;;;;;;5.75;5.00;;;22.30;58.20;;;;;;4944549;29;20036;-59
2022/05/18 06:02:40;;;;;;;8.43;4.93;;;22.30;58.40;;;;;;4943481;28;20416;-62
2022/05/18 06:05:06;;;;;;;5.80;4.43;;;22.30;58.50;;;;;;4945037;29;20105;-62
2022/05/18 06:07:32;;;;;;;5.38;4.50;;;22.30;58.40;;;;;;4943867;29;20047;-61
2022/05/18 06:09:58;;;;;;;5.13;4.10;;;22.30;58.10;;;;;;4947172;29;20039;-60
2022/05/18 06:12:25;;;;;;;7.32;4.20;;;22.30;58.10;;;;;;4947762;29;20058;-63
2022/05/18 06:14:51;;;;;;;4.30;3.90;;;22.20;58.10;;;;;;4947711;28;20045;-60
2022/05/18 06:17:17;;;;;;;6.15;3.92;;;22.30;58.20;;;;;;4945915;28;20083;-61
2022/05/18 06:19:43;;;;;;;5.68;3.75;;;22.30;58.10;;;;;;4946352;28;20114;-61
2022/05/18 06:22:08;;;;;;;4.53;3.65;;;22.30;58.10;;;;;;4945998;28;20419;-61
2022/05/18 06:24:36;;;;;;;5.00;4.25;;;22.30;58.20;;;;;;4946131;28;20059;-59
2022/05/18 06:27:02;;;;;;;5.28;4.07;;;22.30;58.00;;;;;;4943390;28;20038;-59
2022/05/18 06:29:28;;;;;;;6.93;4.30;;;22.30;58.00;;;;;;4938790;28;20381;-61
2022/05/18 06:31:54;;;;;;;5.55;3.88;;;22.30;58.10;;;;;;4942360;29;20106;-62
2022/05/18 06:34:21;;;;;;;4.50;4.10;;;22.30;58.10;;;;;;4943165;28;20046;-61
2022/05/18 06:36:48;;;;;;;5.15;3.80;;;22.30;59.10;;;;;;4942859;29;20055;-59
2022/05/18 06:39:16;;;;;;;3.92;3.63;;;22.20;58.50;;;;;;4941741;29;20044;-59
2022/05/18 06:41:41;;;;;;;5.85;4.30;;;22.30;58.60;;;;;;4942459;29;20403;-60
2022/05/18 06:44:07;;;;;;;5.43;3.83;;;22.30;58.30;;;;;;4942514;28;20044;-61
2022/05/18 06:46:35;;;;;;;4.28;3.88;;;22.30;58.40;;;;;;4943188;28;21141;-61
2022/05/18 06:49:02;;;;;;;9.27;4.95;;;22.30;58.50;;;;;;4943611;29;20055;-59
2022/05/18 06:51:31;;;;;;;17.15;6.15;;;22.30;58.70;;;;;;4945375;29;20047;-61
2022/05/18 06:53:57;;;;;;;13.38;7.22;;;22.30;59.00;;;;;;4944410;29;20070;-60
2022/05/18 06:56:29;;;;;;;17.35;9.38;;;22.30;59.40;;;;;;4943241;28;20040;-62
2022/05/18 06:58:56;;;;;;;19.42;9.40;;;22.30;59.80;;;;;;4945660;29;20078;-62
2022/05/18 07:01:23;;;;;;;20.20;9.40;;;22.30;60.00;;;;;;4944810;28;20742;-59
2022/05/18 07:03:48;;;;;;;24.10;10.88;;;22.30;60.20;;;;;;4945246;29;20070;-62
2022/05/18 07:06:16;;;;;;;26.15;11.25;;;22.30;60.30;;;;;;4945568;29;20038;-62
2022/05/18 07:08:42;;;;;;;28.42;12.07;;;22.30;60.40;;;;;;4946095;28;20558;-59
2022/05/18 07:11:08;;;;;;;25.83;10.70;;;22.30;60.60;;;;;;4944779;29;20047;-59
2022/05/18 07:13:35;;;;;;;29.65;10.70;;;22.30;60.50;;;;;;4945606;28;20058;-59
2022/05/18 07:16:02;;;;;;;30.83;12.73;;;22.30;60.70;;;;;;4943631;29;20125;-60
2022/05/18 07:18:29;;;;;;;34.97;13.63;;;22.30;60.90;;;;;;4945446;29;20099;-59
2022/05/18 07:20:56;;;;;;;35.72;12.70;;;22.30;61.20;;;;;;4945411;29;20035;-60
2022/05/18 07:23:22;;;;;;;36.72;14.55;;;22.30;61.40;;;;;;4943780;28;20054;-59
2022/05/18 07:25:48;;;;;;;33.78;14.35;;;22.30;61.50;;;;;;4944747;29;20051;-62
2022/05/18 07:28:13;;;;;;;35.72;13.65;;;22.30;61.60;;;;;;4942233;28;20062;-60
2022/05/18 07:30:39;;;;;;;33.60;12.77;;;22.30;61.60;;;;;;4942845;28;20047;-60
2022/05/18 07:33:04;;;;;;;26.10;11.13;;;22.40;61.60;;;;;;4942322;29;21781;-62
2022/05/18 07:35:30;;;;;;;28.48;10.40;;;22.30;61.50;;;;;;4943587;28;20111;-59
2022/05/18 07:37:57;;;;;;;22.13;9.32;;;22.30;61.40;;;;;;4943052;29;21007;-61
2022/05/18 07:40:23;;;;;;;24.48;9.88;;;22.30;61.30;;;;;;4942769;28;20043;-61
2022/05/18 07:42:49;;;;;;;24.05;8.70;;;22.40;61.20;;;;;;4947429;28;20134;-61
2022/05/18 07:45:14;;;;;;;20.65;8.85;;;22.30;61.10;;;;;;4948361;29;20506;-63
2022/05/18 07:47:40;;;;;;;23.67;9.70;;;22.30;61.10;;;;;;4945820;29;20047;-64
2022/05/18 07:50:06;;;;;;;19.02;7.55;;;22.40;61.00;;;;;;4947184;29;20129;-61
2022/05/18 07:52:32;;;;;;;14.63;7.60;;;22.30;61.00;;;;;;4947725;28;20043;-59
2022/05/18 07:54:58;;;;;;;18.52;7.22;;;22.30;60.90;;;;;;4949197;29;20073;-59
2022/05/18 07:57:23;;;;;;;16.38;6.88;;;22.40;61.00;;;;;;4948810;29;20110;-59
2022/05/18 07:59:55;;;;;;;17.80;7.60;;;22.40;61.00;;;;;;4949587;28;20046;-60
2022/05/18 08:02:20;;;;;;;14.68;6.82;;;22.30;61.10;;;;;;4962624;28;20075;-64
2022/05/18 08:04:46;;;;;;;15.93;7.68;;;22.40;61.10;;;;;;4948887;28;20082;-61
2022/05/18 08:07:11;;;;;;;14.95;6.30;;;22.40;61.10;;;;;;4950128;29;20118;-59
2022/05/18 08:15:05;;;;;;;13.15;6.90;;;22.40;61.10;;;;;;4950041;29;20089;-60
2022/05/18 08:15:07;;;;;;;11.68;6.63;;;22.40;61.20;;;;;;4948401;29;20483;-60
2022/05/18 08:17:33;;;;;;;9.75;5.95;;;22.40;61.20;;;;;;4947075;28;20078;-59
2022/05/18 08:19:58;;;;;;;12.75;6.22;;;22.30;61.30;;;;;;4948707;28;21630;-61
2022/05/18 08:22:24;;;;;;;11.13;6.53;;;22.40;61.30;;;;;;4946846;29;20057;-60
2022/05/18 08:24:49;;;;;;;7.05;5.82;;;22.40;61.40;;;;;;4929788;29;20050;-61
2022/05/18 08:27:16;;;;;;;6.88;5.72;;;22.40;61.50;;;;;;4948092;29;20043;-61
2022/05/18 08:29:42;;;;;;;7.40;6.05;;;22.40;61.40;;;;;;4947400;29;20038;-61
2022/05/18 08:32:08;;;;;;;7.00;6.22;;;22.40;61.10;;;;;;4946960;29;20039;-61
2022/05/18 08:34:33;;;;;;;8.32;6.32;;;22.40;61.00;;;;;;4948473;28;20487;-61
2022/05/18 08:37:00;;;;;;;15.25;7.70;;;22.40;61.00;;;;;;4947818;28;20048;-62
2022/05/18 08:39:26;;;;;;;9.38;6.18;;;22.50;61.30;;;;;;4946502;29;20125;-59
2022/05/18 08:41:52;;;;;;;8.43;5.70;;;22.40;60.90;;;;;;4947942;28;20130;-59
2022/05/18 08:44:34;;;;;;;8.65;6.22;;;22.40;60.60;;;;;;4947716;29;20322;-59
2022/05/18 08:47:21;;;;;;;8.15;6.18;;;22.50;60.40;;;;;;4942680;29;20048;-60
2022/05/18 08:50:07;;;;;;;6.90;5.30;;;22.50;60.30;;;;;;4944773;29;20047;-61
2022/05/18 08:52:48;;;;;;;7.43;5.00;;;22.50;60.40;;;;;;4945080;28;20085;-61
2022/05/18 08:55:41;;;;;;;8.68;5.60;;;22.50;60.60;;;;;;4949489;29;20533;-59
2022/05/18 08:58:41;;;;;;;6.35;5.70;;;22.50;60.80;;;;;;4948929;29;20035;-59
2022/05/18 09:01:19;;;;;;;6.90;6.10;;;22.50;60.90;;;;;;4896129;29;20475;-61
2022/05/18 09:03:52;;;;;;;6.35;5.75;;;22.50;60.40;;;;;;4945221;29;20047;-60
2022/05/18 09:06:26;;;;;;;6.22;5.57;;;22.50;60.30;;;;;;4949162;28;20054;-60
2022/05/18 09:11:47;;;;;;;8.82;6.53;;;22.50;59.90;;;;;;4938515;28;20079;-59
2022/05/18 09:14:17;;;;;;;12.57;6.75;;;22.60;60.10;;;;;;4943404;28;20118;-58
2022/05/18 09:16:48;;;;;;;10.35;6.65;;;22.50;60.50;;;;;;4944509;29;20137;-61
2022/05/18 09:19:45;;;;;;;8.13;7.28;;;22.60;60.60;;;;;;4943707;29;20047;-63
2022/05/18 09:22:23;;;;;;;7.43;6.63;;;22.60;60.50;;;;;;4939832;29;20051;-61
2022/05/18 09:25:19;;;;;;;9.60;7.28;;;22.60;60.70;;;;;;4943248;29;20098;-62
2022/05/18 09:28:09;;;;;;;9.48;7.40;;;22.60;60.70;;;;;;4919512;29;20075;-61
2022/05/18 09:30:44;;;;;;;12.63;8.03;;;22.60;61.10;;;;;;4942007;29;20047;-61
2022/05/18 09:33:24;;;;;;;7.93;6.90;;;22.60;61.10;;;;;;4944722;29;20680;-60
2022/05/18 09:35:50;;;;;;;13.98;7.35;;;22.70;61.20;;;;;;4943447;28;20460;-64
2022/05/18 09:38:35;;;;;;;10.02;7.95;;;22.60;61.00;;;;;;4945886;28;20047;-60
2022/05/18 09:41:04;;;;;;;8.15;7.30;;;22.70;61.10;;;;;;4943827;29;20074;-59
2022/05/18 09:43:39;;;;;;;9.27;7.38;;;22.70;61.30;;;;;;4944214;29;20055;-59
2022/05/18 09:46:10;;;;;;;10.90;7.30;;;22.70;61.40;;;;;;4942684;28;20059;-60
2022/05/18 09:48:40;;;;;;;10.75;6.47;;;22.80;61.40;;;;;;4943105;28;20054;-59
2022/05/18 09:51:08;;;;;;;8.82;7.63;;;22.80;61.10;;;;;;4944515;28;20118;-60
2022/05/18 09:53:35;;;;;;;10.02;7.75;;;22.80;60.80;;;;;;4943011;28;20058;-64
2022/05/18 09:56:00;;;;;;;9.45;7.72;;;22.80;60.70;;;;;;4944763;29;20039;-61
2022/05/18 09:58:47;;;;;;;10.45;8.27;;;22.80;60.40;;;;;;4942103;29;20050;-62
2022/05/18 10:09:45;;;;;;;12.05;9.25;;;22.80;60.10;;;;;;4946387;29;20076;-59
2022/05/18 10:12:37;;;;;;;10.85;8.90;;;22.90;60.00;;;;;;4947251;29;20054;-60
2022/05/18 10:15:09;;;;;;;11.80;9.32;;;22.90;60.20;;;;;;4899426;29;20149;-59
2022/05/18 10:17:48;;;;;;;11.93;8.63;;;22.90;60.30;;;;;;4943453;29;20076;-58
2022/05/18 10:20:29;;;;;;;11.93;8.65;;;22.90;60.40;;;;;;4940273;29;20945;-61
2022/05/18 10:22:56;;;;;;;11.52;9.02;;;23.00;60.30;;;;;;4946921;28;20486;-58
2022/05/18 10:25:39;;;;;;;12.57;8.60;;;23.00;60.20;;;;;;4945714;28;20065;-64
2022/05/18 10:28:21;;;;;;;9.93;8.70;;;23.00;59.80;;;;;;4943755;28;20043;-59
2022/05/18 10:31:00;;;;;;;12.75;9.15;;;23.10;59.00;;;;;;4945600;29;20088;-61
2022/05/18 10:33:36;;;;;;;10.80;9.25;;;23.00;58.30;;;;;;4945382;29;20164;-61
2022/05/18 10:36:16;;;;;;;10.70;8.20;;;23.10;58.30;;;;;;4945254;28;20058;-61
2022/05/18 10:38:54;;;;;;;12.02;9.23;;;23.20;58.10;;;;;;4945093;29;20829;-60
2022/05/18 10:41:26;;;;;;;17.52;12.30;;;23.20;58.60;;;;;;4939859;28;20031;-59
2022/05/18 10:43:54;;;;;;;14.45;12.52;;;23.20;59.60;;;;;;4937817;28;20520;-61
2022/05/18 10:46:33;;;;;;;16.98;14.63;;;23.20;60.40;;;;;;4944023;28;20046;-58
2022/05/18 10:49:07;;;;;;;16.25;14.20;;;23.20;61.10;;;;;;4942163;28;20229;-59
2022/05/18 10:51:38;;;;;;;19.45;16.00;;;23.20;61.20;;;;;;4943584;28;20039;-60
2022/05/18 10:54:25;;;;;;;15.60;14.05;;;23.30;61.40;;;;;;4944283;28;20050;-61
2022/05/18 10:56:52;;;;;;;17.95;14.15;;;23.30;61.60;;;;;;4944967;28;20569;-59
2022/05/18 10:59:42;;;;;;;17.80;15.95;;;23.30;61.50;;;;;;4943698;28;20043;-62
2022/05/18 11:02:27;;;;;;;16.60;14.90;;;23.30;61.90;;;;;;4945421;29;20062;-63
2022/05/18 11:05:15;;;;;;;17.98;16.08;;;23.30;62.00;;;;;;4944225;28;20114;-61
2022/05/18 11:07:42;;;;;;;19.67;17.58;;;23.40;62.10;;;;;;4942368;28;20059;-60
2022/05/18 11:10:07;;;;;;;18.48;16.65;;;23.30;62.00;;;;;;4951805;28;20137;-60
2022/05/18 11:12:56;;;;;;;18.15;16.25;;;23.40;61.90;;;;;;4944345;29;20079;-60
2022/05/18 11:15:39;;;;;;;18.65;16.70;;;23.40;62.10;;;;;;4943432;28;20408;-61
2022/05/18 11:18:30;;;;;;;18.10;15.82;;;23.40;62.10;;;;;;4945362;29;20471;-59
2022/05/18 11:21:08;;;;;;;;;;;23.50;62.20;;;;;;4944313;28;20073;-61
2022/05/18 11:23:43;;;;;;;19.30;15.38;;;23.50;61.90;;;;;;4943804;28;20330;-60
2022/05/18 11:26:28;;;;;;;17.48;15.63;;;23.50;61.70;;;;;;4944514;29;20403;-62
2022/05/18 11:29:02;;;;;;;19.00;15.43;;;23.50;61.80;;;;;;4940080;28;21229;-61
2022/05/18 11:31:42;;;;;;;17.33;15.55;;;23.50;61.80;;;;;;4942421;28;20047;-59
2022/05/18 11:34:27;;;;;;;14.70;13.10;;;23.50;61.60;;;;;;4942847;28;20399;-60
2022/05/18 11:37:15;;;;;;;15.55;13.98;;;23.60;61.30;;;;;;4944818;28;20055;-60
2022/05/18 11:40:18;;;;;;;13.90;12.52;;;23.60;61.00;;;;;;4939266;29;20047;-60
2022/05/18 11:43:25;;;;;;;15.95;14.05;;;23.60;60.90;;;;;;4944418;29;20051;-61
2022/05/18 11:46:12;;;;;;;15.90;12.77;;;23.60;60.80;;;;;;4940999;29;20692;-60
2022/05/18 11:48:53;;;;;;;15.73;13.52;;;23.60;61.10;;;;;;4943185;28;20109;-61
2022/05/18 11:51:28;;;;;;;;;;;23.70;61.10;;;;;;4944673;29;20055;-60
2022/05/18 11:54:13;;;;;;;15.73;14.10;;;23.70;61.40;;;;;;4942226;29;19941;-60
2022/05/18 11:56:49;;;;;;;17.70;12.90;;;23.70;60.80;;;;;;4944533;28;20083;-60
2022/05/18 11:59:52;;;;;;;17.70;12.38;;;23.70;60.60;;;;;;4944962;29;20078;-61
2022/05/18 12:02:48;;;;;;;14.30;11.15;;;23.60;60.80;;;;;;4944556;29;20043;-63
2022/05/18 12:05:25;;;;;;;11.50;10.02;;;23.60;60.90;;;;;;4944070;29;20095;-60
2022/05/18 12:08:27;;;;;;;10.88;9.85;;;23.50;61.10;;;;;;4944570;29;20043;-60
2022/05/18 12:11:11;;;;;;;11.18;10.07;;;23.50;61.10;;;;;;4944646;29;20122;-60
2022/05/18 12:14:14;;;;;;;10.88;8.30;;;23.40;62.00;;;;;;4944806;29;20158;-60
2022/05/18 12:17:00;;;;;;;10.55;8.63;;;23.40;61.40;;;;;;4943099;28;20101;-61
2022/05/18 12:19:52;;;;;;;12.23;9.63;;;23.40;61.50;;;;;;4943719;29;20047;-61
2022/05/18 12:22:22;;;;;;;10.68;8.40;;;23.40;61.50;;;;;;4945645;28;20138;-61
2022/05/18 12:24:49;;;;;;;;;;;23.30;61.60;;;;;;4944419;29;20514;-61
2022/05/18 12:27:17;;;;;;;11.88;9.60;;;23.30;61.70;;;;;;4946218;28;19925;-60
2022/05/18 12:29:44;;;;;;;11.93;8.60;;;23.30;61.90;;;;;;4948761;28;20113;-61
2022/05/18 12:32:13;;;;;;;8.93;7.55;;;23.30;62.00;;;;;;4948957;28;20046;-63
2022/05/18 12:34:44;;;;;;;10.13;7.80;;;23.30;62.00;;;;;;4948239;28;20074;-61
2022/05/18 12:37:13;;;;;;;10.48;8.52;;;23.30;62.20;;;;;;4946670;29;20101;-59
2022/05/18 12:39:46;;;;;;;9.95;7.65;;;23.30;62.50;;;;;;4947009;28;20061;-60
2022/05/18 12:42:24;;;;;;;14.27;8.90;;;23.30;62.50;;;;;;4948251;29;20139;-62
2022/05/18 12:45:14;;;;;;;10.07;8.05;;;23.30;62.90;;;;;;4948284;29;20035;-60
2022/05/18 12:47:52;;;;;;;8.98;7.50;;;23.30;63.20;;;;;;4932235;28;20062;-61
2022/05/18 12:50:30;;;;;;;9.38;7.57;;;23.30;63.20;;;;;;4949528;29;20038;-61
2022/05/18 12:52:59;;;;;;;7.80;6.25;;;23.30;63.30;;;;;;4948356;29;20058;-60
2022/05/18 12:55:31;;;;;;;8.73;7.82;;;23.30;63.30;;;;;;4947413;28;20097;-62
2022/05/18 12:58:08;;;;;;;7.65;6.80;;;23.30;63.40;;;;;;4946877;28;20035;-60
2022/05/18 13:00:39;;;;;;;10.18;6.30;;;23.30;63.50;;;;;;4946069;28;20070;-63
2022/05/18 13:03:10;;;;;;;10.73;8.10;;;23.30;63.50;;;;;;4947317;29;20043;-60
2022/05/18 13:05:41;;;;;;;9.70;6.47;;;23.30;63.70;;;;;;4946460;29;20403;-60
2022/05/18 13:08:37;;;;;;;10.13;6.10;;;23.30;63.60;;;;;;4948261;29;20123;-61
2022/05/18 13:11:23;;;;;;;6.85;6.15;;;23.30;63.80;;;;;;4948277;29;20050;-60
2022/05/18 13:14:00;;;;;;;8.30;7.20;;;23.30;63.70;;;;;;4933437;29;20154;-61
2022/05/18 13:16:38;;;;;;;8.07;6.88;;;23.30;64.00;;;;;;4946765;29;20050;-60
2022/05/18 13:19:23;;;;;;;6.88;6.18;;;23.30;64.00;;;;;;4948508;29;20082;-61